x

Cape Elizabeth- 45nm Nw Of Aberdeen, Wa (46041) Wave Buoy

10:50 - Thu 10th Jul 2014 All times are PDT. -7 hours from GMT.

  • Sig Wave height 6.2ft
  • Swell Direction
  • Peak Period 8s
  • Average Period 7s
  • Wind
    11mph, 13mph gusts
  • Sea Temp 60°f
  • Ar Temp 56°f
  • Sea Pressure 1013.9mb
  • Cape Elizabeth- 45nm Nw Of Aberdeen, Wa
  • Cape Elizabeth- 45nm Nw Of Aberdeen, Wa

More Historic Weather Station data

Upgrade to MSW Pro to gain access to the past 30 days of data for over 8000 Wavebouys and Weather Stations around the globe.

Join Pro

Comparision Forecast

View Surf forecast
   
Qui 07/10 10:50 6ft 8s 7s 11 13 mph 1013.9mb 60f 56f
9:50 6ft 8s 6s 11 16 mph 1013.9mb 60f 57f
8:50 5.5ft 8s 6s 13 16 mph 1013.8mb 60f 58f
7:50 6.5ft 8s 7s 13 16 mph 1013.7mb 60f 58f
6:50 6ft 9s 7s 11 16 mph 1013.8mb 61f 58f
5:50 6ft 9s 7s 9 11 mph 1013.9mb 61f 58f
4:50 6ft 9s 7s 4 7 mph 1014.2mb 61f 58f
3:50 6ft 8s 7s 9
mph
1014.4mb 61f 59f
2:50 6ft 9s 7s 7
mph
1014.7mb 61f 60f
1:50 6ft 9s 7s 7
mph
1014.9mb 60f 59f
12:50 7ft 9s 7s 9 11 mph 1015mb 60f 59f
11:50 7ft 9s 7s 7 9 mph 1015.2mb 59f 58f
10:50 7ft 9s 7s 7 9 mph 1015.3mb 58f 58f
9:50 8ft 9s 7s 7 11 mph 1015.2mb 58f 57f
8:50 8ft 9s 7s 7 9 mph 1015.2mb 58f 58f
7:50 7.5ft 9s 7s 4 7 mph 1015.3mb 57f 57f
6:50 8ft 9s 7s 4 7 mph 1015mb 57f 57f
5:50 7.5ft 9s 7s 2 4 mph 1015mb 57f 57f
4:50 8ft 9s 7s 4 7 mph 1015mb 58f 58f
3:50 8ft 9s 7s 7 9 mph 1014.9mb 58f 58f
2:50 7ft 9s 7s 9 11 mph 1015.1mb 58f 58f
1:50 7ft 9s 7s 11 13 mph 1015.3mb 58f 58f
12:50 7.5ft 9s 7s 11 13 mph 1015.5mb 58f 58f
Qua 07/09 11:50 8ft 8s 7s 13 16 mph 1015.6mb 58f 58f
10:50 7.5ft 8s 7s 16 18 mph 1015.6mb 58f 58f
9:50 7ft 8s 6s 16 18 mph 1015.6mb 58f 58f
8:50 8ft 9s 7s 16 20 mph 1015.6mb 58f 59f
7:50 8ft 9s 7s 16 18 mph 1015.9mb 58f 59f
6:50 7.5ft 9s 7s 16 20 mph 1016.2mb 58f 59f
5:50 8ft 9s 7s 16 18 mph 1016.6mb 58f 59f
4:50 7.5ft 9s 7s 18 20 mph 1017.1mb 58f 59f
3:50 7ft 8s 7s 16 18 mph 1017.5mb 59f 59f
2:50 7ft 9s 7s 16 18 mph 1017.9mb 59f 59f
1:50 7.5ft 9s 7s 13 18 mph 1018.2mb 58f 59f
12:50 8ft 9s 7s 13 16 mph 1018.3mb 58f 59f
11:50 7.5ft 9s 7s 13 16 mph 1018.4mb 58f 59f
10:50 7ft 8s 6s 13 18 mph 1018.3mb 58f 58f
9:50 8ft 8s 7s 13 18 mph 1018.5mb 58f 58f
8:50 8ft 8s 7s 13 18 mph 1018.4mb 58f 58f
7:50 7ft 8s 6s 16 20 mph 1018.3mb 58f 58f
6:50 6ft 8s 6s 16 22 mph 1018.2mb 58f 58f
5:50 7ft 8s 6s 16 20 mph 1018.1mb 58f 58f
4:50 6ft 8s 6s 18 20 mph 1017.7mb 58f 58f
3:50 5.5ft 8s 5s 18 20 mph 1017.8mb 58f 58f
2:50 5ft 7s 5s 18 22 mph 1017.9mb 58f 58f
1:50 5ft 7s 5s 16 20 mph 1018.1mb 58f 58f
12:50 5.5ft 7s 5s 20 25 mph 1018.2mb 58f 58f
Ter 07/08 11:50 5ft 6s 5s 20 25 mph 1018.3mb 58f 59f
10:50 5.5ft 6s 5s 22 25 mph 1018mb 59f 59f
9:50 5ft 6s 5s 18 25 mph 1018mb 59f 59f
2:50 4ft 6s 5s 18 22 mph 1019mb 59f 59f
1:50 4ft 6s 5s 18 20 mph 1019mb 59f 59f
12:50 4ft 7s 5s 16 18 mph 1019.3mb 61f 59f
11:50 4.5ft 7s 5s 16 20 mph 1019.4mb 61f 59f
10:50 4.5ft 6s 5s 13 16 mph 1019.2mb 61f 59f
9:50 4.5ft 7s 5s 11 16 mph 1019.1mb 61f 59f
8:50 4.5ft 7s 5s 13 16 mph 1018.8mb 60f 59f
7:50 4.5ft 7s 5s 13 16 mph 1018.6mb 60f 59f
6:50 5ft 6s 5s 16 18 mph 1018.5mb 60f 59f
5:50 4.5ft 6s 5s 16 20 mph 1018.6mb 60f 59f
4:50 4.5ft 6s 5s 18 22 mph 1018.6mb 60f 59f
3:50 4.5ft 6s 5s 18 22 mph 1018.9mb 60f 59f
2:50 4.5ft 7s 5s 18 20 mph 1018.9mb 60f 59f
1:50 4.5ft 6s 5s 18 20 mph 1019mb 60f 59f
12:50 4.5ft 6s 5s 18 20 mph 1018.9mb 60f 59f
Seg 07/07 11:50 4.5ft 6s 5s 20 22 mph 1018.8mb 60f 59f
10:50 5ft 5s 5s 20 22 mph 1018.8mb 61f 59f
9:50 5ft 5s 5s 20 22 mph 1018.7mb 61f 58f
7:50 5ft 5s 4s 25 29 mph 1018.8mb 61f 57f
6:50 4.5ft 5s 4s 25 29 mph 1018.9mb 61f 58f
5:50 5ft 5s 4s 22 27 mph 1019.1mb 61f 58f
4:50 4.5ft 8s 4s 22 27 mph 1019.4mb 61f 58f
3:50 4.5ft 4s 4s 22 27 mph 1019.8mb 60f 58f
2:50 4.5ft 8s 5s 22 25 mph 1020.1mb 60f 58f
1:50 4ft 8s 5s 20 25 mph 1020.2mb 61f 59f
12:50 4ft 8s 5s 20 22 mph 1020.7mb 60f 58f
11:50 3.5ft 8s 5s 16 18 mph 1020.9mb 60f 58f
10:50 4ft 8s 5s 18 20 mph 1020.9mb 59f 57f
9:50 4ft 9s 5s 16 18 mph 1020.9mb 59f 58f
8:50 4ft 9s 5s 18 20 mph 1020.9mb 59f 58f
7:50 4.5ft 8s 5s 18 22 mph 1020.8mb 59f 58f